Terminal Aerodrome Forecast
Issued by NWS

Home | Current Version | Previous Version | Text Only | Print | Product List | Glossary On
Versions: 1 2 3 4 5 6 7 8 9 10 11 12 13 14 15 16
000
FTPA31 PHFO 220104 AAA
TAFHJR
TAF AMD
PHJR 220104Z 2201/2224 06012G18KT P6SM FEW045
     FM220600 06004KT P6SM FEW045
     FM222100 15010KT P6SM FEW070=

USA.gov is the U.S. government's official web portal to all federal, state and local government web resources and services.